Time;durP1;ratioP1;P1;durP2;ratioP2;P2;SDS_P1;SDS_P2;PMS_P1;PMS_P2;Temp;Humidity;BMP_temperature;BMP_pressure;BME280_temperature;BME280_humidity;BME280_pressure;Samples;Min_cycle;Max_cycle;Signal;HPM_P1;HPM_P2
2023/03/15 00:02:17;;;;;;;3.08;1.10;;;;;;;;;;10133737;29;20096;-85
2023/03/15 00:07:24;;;;;;;2.90;1.58;;;;;;;;;;10130991;29;20044;-85
2023/03/15 00:12:29;;;;;;;4.10;1.48;;;;;;;;;;10149184;29;20618;-86
2023/03/15 00:17:34;;;;;;;2.40;1.10;;;;;;;;;;10138871;29;20044;-86
2023/03/15 00:22:38;;;;;;;6.10;1.50;;;;;;;;;;10135949;29;20096;-85
2023/03/15 00:27:41;;;;;;;1.85;1.02;;;;;;;;;;10125513;29;20052;-86
2023/03/15 00:32:46;;;;;;;2.65;1.52;;;;;;;;;;10133487;29;20039;-86
2023/03/15 00:37:49;;;;;;;2.22;1.13;;;;;;;;;;10175855;29;20380;-87
2023/03/15 00:42:53;;;;;;;2.58;1.33;;;;;;;;;;10191056;29;20066;-85
2023/03/15 00:47:58;;;;;;;3.80;1.38;;;;;;;;;;10170510;29;20044;-85
2023/03/15 00:53:02;;;;;;;2.75;1.20;;;;;;;;;;10165420;29;20122;-84
2023/03/15 00:58:06;;;;;;;4.03;1.20;;;;;;;;;;10158096;29;20135;-84
2023/03/15 01:03:11;;;;;;;4.53;1.25;;;;;;;;;;10139409;29;20054;-84
2023/03/15 01:08:15;;;;;;;1.67;1.00;;;;;;;;;;10169840;29;20047;-83
2023/03/15 01:13:18;;;;;;;2.25;1.23;;;;;;;;;;10162981;29;20152;-83
2023/03/15 01:18:23;;;;;;;1.60;1.05;;;;;;;;;;10118643;29;20126;-84
2023/03/15 01:23:27;;;;;;;1.80;1.00;;;;;;;;;;10121342;29;20068;-84
2023/03/15 01:28:30;;;;;;;3.72;1.40;;;;;;;;;;10153787;29;20040;-84
2023/03/15 01:33:35;;;;;;;2.15;0.98;;;;;;;;;;10165298;29;20040;-86
2023/03/15 01:38:39;;;;;;;3.40;1.10;;;;;;;;;;10173375;29;20051;-85
2023/03/15 01:43:46;;;;;;;3.80;1.25;;;;;;;;;;10177822;29;20047;-85
2023/03/15 01:48:56;;;;;;;3.40;1.20;;;;;;;;;;10174039;29;20044;-83
2023/03/15 01:54:09;;;;;;;2.40;0.93;;;;;;;;;;10141069;29;20047;-85
2023/03/15 01:59:15;;;;;;;3.42;1.08;;;;;;;;;;10131256;29;20059;-85
2023/03/15 02:04:25;;;;;;;2.25;1.20;;;;;;;;;;10145520;29;20043;-86
2023/03/15 02:09:36;;;;;;;2.08;1.13;;;;;;;;;;10150406;29;20048;-85
2023/03/15 02:14:42;;;;;;;2.78;1.40;;;;;;;;;;10147559;29;20595;-83
2023/03/15 02:19:57;;;;;;;4.30;1.27;;;;;;;;;;10146054;29;20051;-87
2023/03/15 02:25:06;;;;;;;2.53;1.00;;;;;;;;;;10156129;29;20043;-86
2023/03/15 02:30:13;;;;;;;2.00;1.17;;;;;;;;;;10169949;29;20044;-86
2023/03/15 02:35:24;;;;;;;1.77;1.02;;;;;;;;;;10152789;29;20043;-83
2023/03/15 02:40:30;;;;;;;1.50;1.08;;;;;;;;;;10153542;29;20705;-84
2023/03/15 02:45:38;;;;;;;3.25;1.50;;;;;;;;;;10136080;29;20044;-83
2023/03/15 02:50:42;;;;;;;2.05;1.75;;;;;;;;;;10129024;29;20044;-84
2023/03/15 02:55:45;;;;;;;1.95;1.25;;;;;;;;;;10151244;29;20511;-83
2023/03/15 03:00:52;;;;;;;1.27;1.00;;;;;;;;;;10153407;29;20063;-83
2023/03/15 03:05:55;;;;;;;6.63;2.08;;;;;;;;;;10151258;29;20221;-83
2023/03/15 03:10:59;;;;;;;4.72;1.65;;;;;;;;;;10157302;29;20043;-84
2023/03/15 03:16:05;;;;;;;3.38;1.90;;;;;;;;;;10155850;29;20040;-85
2023/03/15 03:21:09;;;;;;;2.03;1.57;;;;;;;;;;10158805;29;20043;-86
2023/03/15 03:26:15;;;;;;;4.55;1.80;;;;;;;;;;10161086;29;20411;-85
2023/03/15 03:31:24;;;;;;;2.50;1.98;;;;;;;;;;10152244;29;20075;-85
2023/03/15 03:36:29;;;;;;;2.67;1.90;;;;;;;;;;10144479;29;20063;-85
2023/03/15 03:41:33;;;;;;;2.25;1.70;;;;;;;;;;10154595;29;20040;-84
2023/03/15 03:46:40;;;;;;;4.47;2.00;;;;;;;;;;10154395;29;20417;-85
2023/03/15 03:51:48;;;;;;;3.65;1.70;;;;;;;;;;10147442;29;20511;-87
2023/03/15 03:56:52;;;;;;;3.97;1.63;;;;;;;;;;10165902;29;20075;-85
2023/03/15 04:01:59;;;;;;;3.30;1.50;;;;;;;;;;10136943;29;20080;-84
2023/03/15 04:07:03;;;;;;;5.95;2.00;;;;;;;;;;10142307;29;20044;-84
2023/03/15 04:12:11;;;;;;;1.67;1.40;;;;;;;;;;10135258;29;20144;-84
2023/03/15 04:17:20;;;;;;;2.40;1.67;;;;;;;;;;10154282;29;20054;-85
2023/03/15 04:22:24;;;;;;;12.57;3.50;;;;;;;;;;10156207;29;20098;-86
2023/03/15 04:27:41;;;;;;;8.38;3.22;;;;;;;;;;10142176;29;20047;-86
2023/03/15 04:32:57;;;;;;;6.47;3.00;;;;;;;;;;10145621;29;20044;-86
2023/03/15 04:38:25;;;;;;;8.45;2.47;;;;;;;;;;10172559;29;20509;-88
2023/03/15 04:43:52;;;;;;;5.78;2.90;;;;;;;;;;10152250;29;20048;-85
2023/03/15 04:49:23;;;;;;;9.95;3.33;;;;;;;;;;10164849;29;20058;-84
2023/03/15 04:54:33;;;;;;;9.98;3.15;;;;;;;;;;10122930;29;20040;-84
2023/03/15 05:00:01;;;;;;;5.93;2.70;;;;;;;;;;10142242;29;20051;-83
2023/03/15 05:05:13;;;;;;;5.90;2.15;;;;;;;;;;10160569;29;20044;-86
2023/03/15 05:10:46;;;;;;;8.17;3.07;;;;;;;;;;10107361;29;20035;-83
2023/03/15 05:16:02;;;;;;;5.43;2.30;;;;;;;;;;10166503;29;20039;-84
2023/03/15 05:21:32;;;;;;;6.63;2.20;;;;;;;;;;10131231;29;20127;-86
2023/03/15 05:26:53;;;;;;;5.90;2.78;;;;;;;;;;10159156;29;20504;-87
2023/03/15 05:32:16;;;;;;;4.07;2.22;;;;;;;;;;10143148;29;20511;-85
2023/03/15 05:37:41;;;;;;;9.27;3.30;;;;;;;;;;10179653;29;20122;-86
2023/03/15 05:43:03;;;;;;;5.22;2.22;;;;;;;;;;10165329;29;20080;-84
2023/03/15 05:48:26;;;;;;;6.75;2.72;;;;;;;;;;10150887;29;20044;-85
2023/03/15 05:53:49;;;;;;;4.15;2.13;;;;;;;;;;10137355;29;20055;-84
2023/03/15 05:59:06;;;;;;;3.50;1.98;;;;;;;;;;10143468;29;20134;-86
2023/03/15 06:04:28;;;;;;;7.95;2.15;;;;;;;;;;10175084;29;20096;-87
2023/03/15 06:09:35;;;;;;;7.70;2.10;;;;;;;;;;10165423;29;20048;-91
2023/03/15 06:14:40;;;;;;;6.50;2.25;;;;;;;;;;10191790;29;20047;-89
2023/03/15 06:19:47;;;;;;;6.03;2.40;;;;;;;;;;10189236;29;20119;-91
2023/03/15 06:24:53;;;;;;;4.57;2.20;;;;;;;;;;10185555;29;20621;-92
2023/03/15 06:29:58;;;;;;;7.18;2.78;;;;;;;;;;10160807;29;20040;-87
2023/03/15 06:35:03;;;;;;;5.95;2.55;;;;;;;;;;10163409;29;20423;-88
2023/03/15 06:40:11;;;;;;;6.50;2.80;;;;;;;;;;10171438;29;20044;-91
2023/03/15 06:45:17;;;;;;;6.93;2.40;;;;;;;;;;10160297;29;20508;-87
2023/03/15 06:50:25;;;;;;;4.93;2.80;;;;;;;;;;10174204;29;20558;-86
2023/03/15 06:55:33;;;;;;;4.43;2.35;;;;;;;;;;10158102;29;20074;-90
2023/03/15 07:00:37;;;;;;;4.85;2.33;;;;;;;;;;10147195;29;20067;-86
2023/03/15 07:05:40;;;;;;;5.07;2.25;;;;;;;;;;10154856;29;20071;-86
2023/03/15 07:10:47;;;;;;;3.10;1.80;;;;;;;;;;10143915;29;20059;-87
2023/03/15 07:15:52;;;;;;;3.78;2.17;;;;;;;;;;10140337;29;20044;-87
2023/03/15 07:20:57;;;;;;;4.00;2.17;;;;;;;;;;10136867;29;20815;-86
2023/03/15 07:26:03;;;;;;;4.95;2.42;;;;;;;;;;10132308;29;20044;-87
2023/03/15 07:31:07;;;;;;;3.72;2.20;;;;;;;;;;10147491;29;20954;-86
2023/03/15 07:36:11;;;;;;;3.13;1.90;;;;;;;;;;10148418;29;20475;-88
2023/03/15 07:41:18;;;;;;;6.18;2.78;;;;;;;;;;10147076;29;20051;-88
2023/03/15 07:46:44;;;;;;;4.18;2.28;;;;;;;;;;10151419;29;20039;-89
2023/03/15 07:51:48;;;;;;;3.88;2.05;;;;;;;;;;10155825;29;20055;-92
2023/03/15 07:56:53;;;;;;;2.63;1.58;;;;;;;;;;10154171;29;20051;-90
2023/03/15 08:01:57;;;;;;;1.97;1.83;;;;;;;;;;10157411;29;20530;-89
2023/03/15 08:07:03;;;;;;;4.22;1.98;;;;;;;;;;10161313;29;20055;-89
2023/03/15 08:12:08;;;;;;;2.65;1.67;;;;;;;;;;10154874;29;20047;-88
2023/03/15 08:17:15;;;;;;;4.05;2.08;;;;;;;;;;10170377;29;20071;-88
2023/03/15 08:22:18;;;;;;;1.70;1.52;;;;;;;;;;10183771;29;20040;-90
2023/03/15 08:27:24;;;;;;;3.58;1.80;;;;;;;;;;10172965;29;20036;-90
2023/03/15 08:32:28;;;;;;;1.73;1.40;;;;;;;;;;10172558;29;20047;-90
2023/03/15 08:37:31;;;;;;;4.03;1.80;;;;;;;;;;10163950;29;20040;-88
2023/03/15 08:42:37;;;;;;;3.38;1.63;;;;;;;;;;10162258;29;20091;-86
2023/03/15 08:47:40;;;;;;;2.47;1.58;;;;;;;;;;10161514;29;20046;-88
2023/03/15 08:52:44;;;;;;;2.35;1.70;;;;;;;;;;10150915;29;20040;-88
2023/03/15 08:57:49;;;;;;;1.85;1.02;;;;;;;;;;10146242;29;20039;-87
2023/03/15 09:02:53;;;;;;;2.17;1.35;;;;;;;;;;10157305;29;20043;-87
2023/03/15 09:07:57;;;;;;;1.08;0.98;;;;;;;;;;10162955;29;20499;-88
2023/03/15 09:13:02;;;;;;;1.48;1.05;;;;;;;;;;10156078;29;20040;-89
2023/03/15 09:18:06;;;;;;;1.67;1.40;;;;;;;;;;10160761;29;20063;-89
2023/03/15 09:23:09;;;;;;;1.27;1.13;;;;;;;;;;10154077;29;20052;-88
2023/03/15 09:28:14;;;;;;;3.50;1.73;;;;;;;;;;10153438;29;20118;-88
2023/03/15 09:33:18;;;;;;;2.33;1.80;;;;;;;;;;10152658;29;20036;-88
2023/03/15 09:38:23;;;;;;;0.90;0.90;;;;;;;;;;10166231;29;20040;-88
2023/03/15 09:43:49;;;;;;;1.42;1.00;;;;;;;;;;10143277;29;20567;-88
2023/03/15 09:48:56;;;;;;;1.75;1.35;;;;;;;;;;10148604;29;20040;-86
2023/03/15 09:54:04;;;;;;;1.60;1.05;;;;;;;;;;10150022;29;20062;-88
2023/03/15 09:59:10;;;;;;;1.52;0.60;;;;;;;;;;10151734;29;20040;-88
2023/03/15 10:04:16;;;;;;;;;;;;;;;;;;10155179;29;20134;-88
2023/03/15 10:09:25;;;;;;;0.85;0.70;;;;;;;;;;10156820;29;19930;-89
2023/03/15 10:14:43;;;;;;;0.90;0.85;;;;;;;;;;10149288;29;20096;-87
2023/03/15 10:19:50;;;;;;;1.30;1.10;;;;;;;;;;10147177;29;20142;-89
2023/03/15 10:24:58;;;;;;;1.55;1.40;;;;;;;;;;10151619;29;20524;-89
2023/03/15 10:30:15;;;;;;;1.77;1.10;;;;;;;;;;10136608;29;20044;-89
2023/03/15 10:35:20;;;;;;;1.48;1.30;;;;;;;;;;10139887;29;20574;-89
2023/03/15 10:40:40;;;;;;;2.35;1.67;;;;;;;;;;10165582;29;20705;-89
2023/03/15 10:45:48;;;;;;;3.03;2.10;;;;;;;;;;10141265;29;20552;-89
2023/03/15 10:50:56;;;;;;;1.95;1.40;;;;;;;;;;10159249;29;20665;-87
2023/03/15 10:56:04;;;;;;;1.95;1.70;;;;;;;;;;10150461;29;20126;-87
2023/03/15 11:01:27;;;;;;;1.98;1.77;;;;;;;;;;10153740;29;20102;-87
2023/03/15 11:06:40;;;;;;;2.78;2.15;;;;;;;;;;10143887;29;20136;-88
2023/03/15 11:12:03;;;;;;;2.25;1.90;;;;;;;;;;10153854;29;20107;-87
2023/03/15 11:17:16;;;;;;;3.05;2.03;;;;;;;;;;10152807;29;20079;-88
2023/03/15 11:22:20;;;;;;;2.90;2.03;;;;;;;;;;10142685;29;20104;-87
2023/03/15 11:27:27;;;;;;;2.35;2.15;;;;;;;;;;10151265;29;20050;-87
2023/03/15 11:32:33;;;;;;;1.90;1.67;;;;;;;;;;10157598;29;20345;-87
2023/03/15 11:37:42;;;;;;;2.50;1.67;;;;;;;;;;10152979;29;20140;-91
2023/03/15 11:42:50;;;;;;;1.73;1.60;;;;;;;;;;10194497;23;20125;-79
2023/03/15 11:47:58;;;;;;;2.15;1.50;;;;;;;;;;10172694;28;20039;-78
2023/03/15 11:53:05;;;;;;;2.10;1.50;;;;;;;;;;10207547;28;20471;-78
2023/03/15 11:58:31;;;;;;;2.80;1.55;;;;;;;;;;10231263;28;20091;-78
2023/03/15 12:03:38;;;;;;;;;;;;;;;;;;10182646;29;20122;-78
2023/03/15 12:08:49;;;;;;;2.42;1.45;;;;;;;;;;10217499;29;20163;-78
2023/03/15 12:14:03;;;;;;;2.35;1.90;;;;;;;;;;10235609;28;20054;-78
2023/03/15 12:19:15;;;;;;;1.80;1.48;;;;;;;;;;10233074;29;20032;-78
2023/03/15 12:24:23;;;;;;;1.90;1.50;;;;;;;;;;10233330;28;20055;-78
2023/03/15 12:29:31;;;;;;;1.92;1.67;;;;;;;;;;10236984;28;20122;-78
2023/03/15 12:34:46;;;;;;;2.67;1.88;;;;;;;;;;10235817;28;20047;-78
2023/03/15 12:39:51;;;;;;;3.17;2.10;;;;;;;;;;10233396;28;20152;-78
2023/03/15 12:45:15;;;;;;;2.47;1.92;;;;;;;;;;10235462;28;20075;-78
2023/03/15 12:50:51;;;;;;;3.42;1.55;;;;;;;;;;10235271;28;20051;-78
2023/03/15 12:55:56;;;;;;;2.22;1.75;;;;;;;;;;10232191;28;20131;-78
2023/03/15 13:01:14;;;;;;;2.10;1.52;;;;;;;;;;10214907;28;20044;-78
2023/03/15 13:06:29;;;;;;;1.70;1.30;;;;;;;;;;10217570;28;20070;-78
2023/03/15 13:11:38;;;;;;;1.35;1.08;;;;;;;;;;10212987;28;20048;-78
2023/03/15 13:16:47;;;;;;;1.90;1.05;;;;;;;;;;10227104;28;20447;-78
2023/03/15 13:22:05;;;;;;;2.22;1.40;;;;;;;;;;10219699;28;20040;-78
2023/03/15 13:27:15;;;;;;;3.00;2.00;;;;;;;;;;10235318;28;20550;-78
2023/03/15 13:32:21;;;;;;;2.47;1.63;;;;;;;;;;10236324;28;20078;-78
2023/03/15 13:37:27;;;;;;;1.90;1.30;;;;;;;;;;10236412;28;20550;-78
2023/03/15 13:42:32;;;;;;;2.20;1.88;;;;;;;;;;10211997;28;20043;-78
2023/03/15 13:47:36;;;;;;;3.45;2.35;;;;;;;;;;10216531;29;20106;-78
2023/03/15 13:52:41;;;;;;;3.65;2.30;;;;;;;;;;10212960;29;20086;-79
2023/03/15 13:57:45;;;;;;;2.55;1.58;;;;;;;;;;10234656;28;20039;-78
2023/03/15 14:02:52;;;;;;;2.55;1.30;;;;;;;;;;10225303;28;20043;-78
2023/03/15 14:08:02;;;;;;;3.55;1.70;;;;;;;;;;10216439;29;20051;-78
2023/03/15 14:13:24;;;;;;;2.17;1.30;;;;;;;;;;10227980;28;20118;-78
2023/03/15 14:18:32;;;;;;;1.27;1.00;;;;;;;;;;10232106;28;20035;-78
2023/03/15 14:23:41;;;;;;;1.10;1.00;;;;;;;;;;10222254;28;20094;-78
2023/03/15 14:28:57;;;;;;;2.55;1.10;;;;;;;;;;10230417;28;20129;-78
2023/03/15 14:34:08;;;;;;;0.95;0.65;;;;;;;;;;10227034;28;20043;-78
2023/03/15 14:39:28;;;;;;;2.28;1.10;;;;;;;;;;10213320;28;20647;-78
2023/03/15 14:44:31;;;;;;;3.65;1.38;;;;;;;;;;10210532;28;20094;-78
2023/03/15 14:49:35;;;;;;;2.38;1.40;;;;;;;;;;10231616;28;20098;-78
2023/03/15 14:54:44;;;;;;;4.07;2.05;;;;;;;;;;10221768;28;20455;-78
2023/03/15 14:59:49;;;;;;;1.40;1.10;;;;;;;;;;10223024;28;20070;-78
2023/03/15 15:04:52;;;;;;;1.75;1.15;;;;;;;;;;10201675;29;20539;-78
2023/03/15 15:09:58;;;;;;;2.10;1.30;;;;;;;;;;10194452;29;20151;-79
2023/03/15 15:15:02;;;;;;;3.47;1.27;;;;;;;;;;10207394;28;20047;-79
2023/03/15 15:20:07;;;;;;;1.67;1.25;;;;;;;;;;10231139;28;20051;-80
2023/03/15 15:25:17;;;;;;;2.45;1.60;;;;;;;;;;10231262;28;20043;-78
2023/03/15 15:30:23;;;;;;;2.55;1.10;;;;;;;;;;10227815;28;20062;-79
2023/03/15 15:35:32;;;;;;;1.90;1.42;;;;;;;;;;10232165;28;20117;-79
2023/03/15 15:40:37;;;;;;;2.47;1.15;;;;;;;;;;10231861;28;20505;-79
2023/03/15 15:45:41;;;;;;;3.33;1.90;;;;;;;;;;10227701;28;20071;-78
2023/03/15 15:50:45;;;;;;;1.40;1.20;;;;;;;;;;10224319;28;20525;-78
2023/03/15 15:55:50;;;;;;;1.27;0.85;;;;;;;;;;10226428;28;20043;-78
2023/03/15 16:00:54;;;;;;;0.88;0.73;;;;;;;;;;10230652;28;20130;-80
2023/03/15 16:05:58;;;;;;;1.05;0.95;;;;;;;;;;10232923;28;20035;-79
2023/03/15 16:11:25;;;;;;;1.00;0.90;;;;;;;;;;10212956;23;20043;-83
2023/03/15 16:16:29;;;;;;;1.50;1.15;;;;;;;;;;10237097;28;20050;-83
2023/03/15 16:21:36;;;;;;;1.25;1.00;;;;;;;;;;10222479;28;20098;-83
2023/03/15 16:26:42;;;;;;;1.08;0.80;;;;;;;;;;10238893;28;20071;-83
2023/03/15 16:31:46;;;;;;;3.22;1.60;;;;;;;;;;10232889;28;20266;-83
2023/03/15 16:36:54;;;;;;;2.83;1.38;;;;;;;;;;10241358;28;20047;-83
2023/03/15 16:41:59;;;;;;;2.47;1.15;;;;;;;;;;10223365;28;20455;-83
2023/03/15 16:47:02;;;;;;;1.92;0.90;;;;;;;;;;10223560;28;20146;-83
2023/03/15 16:52:08;;;;;;;1.00;0.82;;;;;;;;;;10224644;28;20634;-83
2023/03/15 16:57:16;;;;;;;4.03;1.30;;;;;;;;;;10191761;29;20063;-83
2023/03/15 17:02:21;;;;;;;2.20;1.00;;;;;;;;;;10234088;28;20110;-83
2023/03/15 17:07:29;;;;;;;1.15;1.05;;;;;;;;;;10246158;28;20075;-83
2023/03/15 17:12:36;;;;;;;1.77;1.10;;;;;;;;;;10215554;28;20047;-83
2023/03/15 17:17:40;;;;;;;2.88;1.70;;;;;;;;;;10202027;29;20099;-82
2023/03/15 17:22:44;;;;;;;2.53;1.83;;;;;;;;;;10239162;28;20038;-83
2023/03/15 17:27:50;;;;;;;3.33;2.60;;;;;;;;;;10215646;28;20055;-83
2023/03/15 17:33:24;;;;;;;3.63;2.28;;;;;;;;;;10205593;29;20125;-83
2023/03/15 17:38:31;;;;;;;8.15;3.55;;;;;;;;;;10211423;29;20080;-85
2023/03/15 17:43:36;;;;;;;;;;;;;;;;;;10255337;28;20058;-86
2023/03/15 17:48:39;;;;;;;5.70;2.38;;;;;;;;;;10217512;28;19926;-85
2023/03/15 17:53:43;;;;;;;6.93;3.22;;;;;;;;;;10205139;29;20763;-85
2023/03/15 17:58:48;;;;;;;7.03;3.63;;;;;;;;;;10240833;28;20040;-85
2023/03/15 18:03:52;;;;;;;10.50;4.20;;;;;;;;;;10234377;28;20561;-86
2023/03/15 18:08:55;;;;;;;8.93;4.72;;;;;;;;;;10233983;28;20043;-86
2023/03/15 18:14:00;;;;;;;8.50;4.78;;;;;;;;;;10232029;29;20098;-86
2023/03/15 18:19:04;;;;;;;7.43;4.45;;;;;;;;;;10239356;29;20051;-87
2023/03/15 18:24:08;;;;;;;7.45;4.45;;;;;;;;;;10236776;28;20507;-86
2023/03/15 18:29:12;;;;;;;6.30;3.88;;;;;;;;;;10231335;28;20055;-86
2023/03/15 18:34:20;;;;;;;12.05;4.35;;;;;;;;;;10213110;28;20035;-86
2023/03/15 18:39:24;;;;;;;7.32;4.13;;;;;;;;;;10199976;28;20575;-88
2023/03/15 18:44:29;;;;;;;8.10;4.18;;;;;;;;;;10247412;28;26320;-86
2023/03/15 18:49:32;;;;;;;9.35;5.70;;;;;;;;;;10216715;28;20055;-85
2023/03/15 18:54:36;;;;;;;11.68;5.72;;;;;;;;;;10261053;28;20063;-83
2023/03/15 18:59:41;;;;;;;10.93;6.10;;;;;;;;;;10258407;28;20069;-84
2023/03/15 19:04:44;;;;;;;11.85;6.53;;;;;;;;;;10236528;28;20039;-83
2023/03/15 19:09:48;;;;;;;7.90;5.10;;;;;;;;;;10281745;28;20042;-84
2023/03/15 19:14:53;;;;;;;10.45;5.68;;;;;;;;;;10253109;28;20130;-84
2023/03/15 19:19:56;;;;;;;6.88;3.70;;;;;;;;;;10239182;28;20775;-84
2023/03/15 19:25:00;;;;;;;5.15;3.28;;;;;;;;;;10233334;28;20514;-84
2023/03/15 19:30:06;;;;;;;4.50;2.78;;;;;;;;;;10262664;28;20065;-82
2023/03/15 19:35:11;;;;;;;5.43;3.42;;;;;;;;;;10258729;28;20534;-85
2023/03/15 19:40:17;;;;;;;7.18;4.05;;;;;;;;;;10234198;28;20101;-83
2023/03/15 19:45:22;;;;;;;7.60;4.03;;;;;;;;;;10231074;28;20051;-84
2023/03/15 19:50:29;;;;;;;4.60;3.03;;;;;;;;;;10241325;28;20046;-85
2023/03/15 19:55:35;;;;;;;5.97;3.42;;;;;;;;;;10216953;28;20515;-83
2023/03/15 20:00:40;;;;;;;2.60;1.93;;;;;;;;;;10255812;28;20043;-82
2023/03/15 20:05:43;;;;;;;3.85;2.10;;;;;;;;;;10242552;28;20134;-83
2023/03/15 20:10:47;;;;;;;4.47;2.08;;;;;;;;;;10237361;28;20482;-83
2023/03/15 20:15:52;;;;;;;5.10;2.47;;;;;;;;;;10218930;28;20086;-84
2023/03/15 20:20:55;;;;;;;3.90;2.50;;;;;;;;;;10205936;29;20054;-83
2023/03/15 20:26:08;;;;;;;6.20;2.88;;;;;;;;;;10253893;28;20106;-83
2023/03/15 20:31:16;;;;;;;4.32;2.90;;;;;;;;;;10252354;28;20585;-84
2023/03/15 20:36:20;;;;;;;5.10;2.80;;;;;;;;;;10275593;28;20054;-84
2023/03/15 20:41:24;;;;;;;5.43;2.95;;;;;;;;;;10258348;28;20063;-85
2023/03/15 20:46:28;;;;;;;4.05;2.90;;;;;;;;;;10252130;28;20069;-83
2023/03/15 20:51:32;;;;;;;3.78;2.60;;;;;;;;;;10256801;28;20079;-85
2023/03/15 20:56:35;;;;;;;5.80;3.22;;;;;;;;;;10271210;28;20405;-82
2023/03/15 21:01:40;;;;;;;5.32;3.38;;;;;;;;;;10240827;28;20043;-84
2023/03/15 21:06:43;;;;;;;4.95;3.63;;;;;;;;;;10245513;28;20115;-84
2023/03/15 21:11:47;;;;;;;4.72;2.72;;;;;;;;;;10268015;28;20047;-84
2023/03/15 21:16:52;;;;;;;4.70;2.78;;;;;;;;;;10259010;28;20414;-84
2023/03/15 21:21:57;;;;;;;4.63;2.75;;;;;;;;;;10275776;28;20035;-84
2023/03/15 21:27:05;;;;;;;4.57;2.85;;;;;;;;;;10239629;28;20058;-83
2023/03/15 21:32:10;;;;;;;6.97;4.10;;;;;;;;;;10242991;28;20521;-83
2023/03/15 21:37:13;;;;;;;5.68;3.40;;;;;;;;;;10248441;28;20053;-84
2023/03/15 21:42:17;;;;;;;4.47;2.75;;;;;;;;;;10246074;28;20544;-82
2023/03/15 21:47:22;;;;;;;5.20;3.25;;;;;;;;;;10257568;28;20394;-82
2023/03/15 21:52:26;;;;;;;3.63;2.78;;;;;;;;;;10263190;28;20135;-84
2023/03/15 21:57:32;;;;;;;5.30;3.10;;;;;;;;;;10238745;28;20051;-84
2023/03/15 22:02:37;;;;;;;4.68;2.83;;;;;;;;;;10234369;28;20043;-84
2023/03/15 22:07:42;;;;;;;5.33;3.10;;;;;;;;;;10255853;28;20055;-83
2023/03/15 22:12:46;;;;;;;6.25;3.22;;;;;;;;;;10236537;28;20115;-82
2023/03/15 22:17:50;;;;;;;3.83;2.58;;;;;;;;;;10250714;28;20047;-83
2023/03/15 22:22:54;;;;;;;3.05;2.15;;;;;;;;;;10258355;28;20043;-83
2023/03/15 22:27:57;;;;;;;2.70;2.35;;;;;;;;;;10246259;28;20047;-83
2023/03/15 22:33:02;;;;;;;3.45;2.13;;;;;;;;;;10275711;28;20035;-83
2023/03/15 22:38:08;;;;;;;4.45;2.30;;;;;;;;;;10268325;28;20039;-83
2023/03/15 22:43:12;;;;;;;3.38;2.50;;;;;;;;;;10246800;28;20418;-85
2023/03/15 22:48:16;;;;;;;2.58;1.90;;;;;;;;;;10263821;28;20507;-83
2023/03/15 22:53:20;;;;;;;5.47;2.42;;;;;;;;;;10219158;28;20054;-84
2023/03/15 22:58:24;;;;;;;1.95;1.75;;;;;;;;;;10251934;28;20600;-83
2023/03/15 23:03:29;;;;;;;4.03;2.00;;;;;;;;;;10249571;28;20120;-84
2023/03/15 23:08:32;;;;;;;3.85;2.22;;;;;;;;;;10250962;28;20697;-83
2023/03/15 23:13:36;;;;;;;4.80;2.13;;;;;;;;;;10252887;28;20558;-82
2023/03/15 23:18:41;;;;;;;4.60;2.47;;;;;;;;;;10278779;28;20047;-83
2023/03/15 23:23:45;;;;;;;6.10;3.27;;;;;;;;;;10241560;28;20138;-83
2023/03/15 23:28:48;;;;;;;6.55;3.80;;;;;;;;;;10226921;29;20051;-83
2023/03/15 23:33:53;;;;;;;5.60;3.20;;;;;;;;;;10252855;28;20279;-83
2023/03/15 23:38:56;;;;;;;7.82;4.00;;;;;;;;;;10213597;28;20049;-83
2023/03/15 23:43:59;;;;;;;14.40;7.07;;;;;;;;;;10263066;28;20043;-83
2023/03/15 23:49:05;;;;;;;13.35;6.45;;;;;;;;;;10237135;28;20474;-83
2023/03/15 23:54:08;;;;;;;8.88;4.53;;;;;;;;;;10245027;28;20075;-82
2023/03/15 23:59:12;;;;;;;7.53;4.00;;;;;;;;;;10225492;28;20046;-84
